Time;durP1;ratioP1;P1;durP2;ratioP2;P2;SDS_P1;SDS_P2;PMS_P1;PMS_P2;Temp;Humidity;BMP_temperature;BMP_pressure;BME280_temperature;BME280_humidity;BME280_pressure;Samples;Min_cycle;Max_cycle;Signal;HPM_P1;HPM_P2
2023/01/23 00:02:15;;;;;;;10.23;5.30;;;1.10;97.30;;;;;;5089950;28;20236;-87
2023/01/23 00:04:41;;;;;;;2.53;2.33;;;1.10;97.30;;;;;;5092525;28;20191;-88
2023/01/23 00:07:06;;;;;;;4.13;3.33;;;1.10;97.30;;;;;;5074127;28;20677;-86
2023/01/23 00:09:32;;;;;;;7.23;2.03;;;1.10;97.30;;;;;;5074202;28;20170;-88
2023/01/23 00:11:58;;;;;;;12.37;3.80;;;1.10;97.30;;;;;;5074148;28;20706;-87
2023/01/23 00:14:23;;;;;;;4.10;3.40;;;1.10;97.30;;;;;;5074578;28;20231;-86
2023/01/23 00:16:49;;;;;;;3.57;2.20;;;1.10;97.30;;;;;;5073967;28;20468;-87
2023/01/23 00:19:16;;;;;;;3.87;2.17;;;1.10;97.30;;;;;;5092439;28;20171;-87
2023/01/23 00:21:41;;;;;;;4.77;2.30;;;1.10;97.30;;;;;;5074299;28;20174;-86
2023/01/23 00:24:10;;;;;;;2.87;2.70;;;1.10;97.30;;;;;;5073879;28;20424;-89
2023/01/23 00:26:35;;;;;;;5.60;4.43;;;1.10;97.30;;;;;;5073963;28;20205;-86
2023/01/23 00:29:02;;;;;;;6.70;4.13;;;1.10;97.30;;;;;;5074310;28;20417;-90
2023/01/23 00:31:30;;;;;;;4.67;1.57;;;1.10;97.30;;;;;;5074039;28;20178;-86
2023/01/23 00:34:02;;;;;;;7.00;3.87;;;1.10;97.30;;;;;;5074533;28;20421;-86
2023/01/23 00:36:34;;;;;;;5.33;2.93;;;1.10;97.30;;;;;;5074401;28;21123;-89
2023/01/23 00:39:00;;;;;;;4.50;2.97;;;1.20;97.30;;;;;;5074053;28;20742;-87
2023/01/23 00:41:26;;;;;;;7.40;3.93;;;1.20;97.30;;;;;;5073949;28;20409;-86
2023/01/23 00:43:51;;;;;;;8.80;3.63;;;1.20;97.30;;;;;;5073763;28;20944;-86
2023/01/23 00:46:21;;;;;;;5.20;3.50;;;1.20;97.30;;;;;;5073437;28;20452;-87
2023/01/23 00:48:46;;;;;;;3.43;3.27;;;1.20;97.30;;;;;;5073375;28;20182;-87
2023/01/23 00:51:12;;;;;;;8.90;4.47;;;1.20;97.30;;;;;;5072396;28;20457;-87
2023/01/23 00:53:37;;;;;;;7.90;6.40;;;1.20;97.30;;;;;;5072213;28;20182;-86
2023/01/23 00:56:03;;;;;;;4.87;4.17;;;1.20;97.30;;;;;;5071978;28;20222;-87
2023/01/23 00:58:29;;;;;;;2.33;2.13;;;1.20;97.30;;;;;;5099223;28;20170;-86
2023/01/23 01:00:54;;;;;;;8.23;4.50;;;1.20;97.30;;;;;;5093414;28;20411;-88
2023/01/23 01:03:20;;;;;;;5.53;4.13;;;1.20;97.30;;;;;;5085137;28;20198;-87
2023/01/23 01:05:46;;;;;;;2.80;2.60;;;1.20;97.30;;;;;;5074302;28;20255;-88
2023/01/23 01:08:12;;;;;;;4.20;2.70;;;1.20;97.30;;;;;;5092670;28;20641;-89
2023/01/23 01:10:40;;;;;;;6.10;4.27;;;1.20;97.30;;;;;;5093501;28;20418;-86
2023/01/23 01:13:06;;;;;;;10.77;6.43;;;1.20;97.30;;;;;;5080635;28;20174;-88
2023/01/23 01:15:32;;;;;;;6.00;4.67;;;1.20;97.30;;;;;;5091458;28;20978;-87
2023/01/23 01:17:58;;;;;;;5.87;2.50;;;1.20;97.30;;;;;;5072810;28;20190;-86
2023/01/23 01:20:25;;;;;;;1.80;1.70;;;1.20;97.30;;;;;;5079295;28;20177;-86
2023/01/23 01:22:52;;;;;;;6.43;3.50;;;1.20;97.30;;;;;;5091183;28;20425;-86
2023/01/23 01:25:18;;;;;;;4.37;4.07;;;1.20;97.30;;;;;;5073491;28;20914;-86
2023/01/23 01:27:44;;;;;;;4.17;3.93;;;1.20;97.30;;;;;;5072611;28;20440;-86
2023/01/23 01:30:10;;;;;;;4.20;2.40;;;1.20;97.30;;;;;;5073693;28;20421;-86
2023/01/23 01:32:40;;;;;;;3.97;3.77;;;1.20;97.30;;;;;;5073850;28;20269;-88
2023/01/23 01:35:07;;;;;;;5.63;4.43;;;1.20;97.30;;;;;;5085385;28;20424;-86
2023/01/23 01:37:37;;;;;;;3.40;2.13;;;1.20;97.30;;;;;;5072901;28;20460;-86
2023/01/23 01:40:04;;;;;;;3.17;2.50;;;1.20;97.30;;;;;;5072132;28;20472;-89
2023/01/23 01:42:30;;;;;;;4.40;4.10;;;1.20;97.30;;;;;;5071910;28;20428;-86
2023/01/23 01:45:00;;;;;;;6.00;2.80;;;1.30;97.30;;;;;;5090149;28;20397;-87
2023/01/23 01:47:26;;;;;;;5.13;2.63;;;1.30;97.30;;;;;;5071809;28;20198;-89
2023/01/23 01:49:58;;;;;;;2.70;2.50;;;1.30;97.30;;;;;;5089885;28;20489;-87
2023/01/23 01:52:24;;;;;;;6.83;5.80;;;1.20;97.30;;;;;;5071792;28;20412;-86
2023/01/23 01:55:01;;;;;;;8.93;6.30;;;1.20;97.30;;;;;;5071812;28;20461;-88
2023/01/23 01:57:37;;;;;;;3.97;3.77;;;1.30;97.30;;;;;;5071330;28;20475;-89
2023/01/23 02:00:11;;;;;;;13.23;6.53;;;1.30;97.30;;;;;;5071948;28;20785;-86
2023/01/23 02:02:57;;;;;;;3.33;3.13;;;1.30;97.30;;;;;;5073528;28;20484;-86
2023/01/23 02:05:26;;;;;;;3.03;2.83;;;1.30;97.30;;;;;;5073795;28;21104;-87
2023/01/23 02:08:13;;;;;;;5.10;4.80;;;1.30;97.30;;;;;;5072646;28;20480;-86
2023/01/23 02:10:39;;;;;;;4.60;4.30;;;1.30;97.30;;;;;;5091415;28;20428;-86
2023/01/23 02:13:32;;;;;;;3.97;2.77;;;1.30;97.30;;;;;;5072724;28;20409;-86
2023/01/23 02:16:00;;;;;;;6.47;4.37;;;1.30;97.30;;;;;;5080239;28;20460;-87
2023/01/23 02:18:27;;;;;;;2.47;2.27;;;1.30;97.30;;;;;;5093623;28;20418;-86
2023/01/23 02:20:55;;;;;;;2.87;2.67;;;1.30;97.30;;;;;;5111988;28;20763;-86
2023/01/23 02:23:42;;;;;;;4.60;2.67;;;1.30;97.30;;;;;;5092963;28;20418;-87
2023/01/23 02:26:15;;;;;;;4.87;4.60;;;1.30;97.30;;;;;;5092923;28;20522;-87
2023/01/23 02:28:44;;;;;;;3.57;2.70;;;1.30;97.30;;;;;;5093030;28;20838;-86
2023/01/23 02:31:10;;;;;;;3.00;2.80;;;1.30;97.30;;;;;;5095862;28;20415;-87
2023/01/23 02:33:36;;;;;;;13.83;4.37;;;1.30;97.30;;;;;;5097018;28;20404;-86
2023/01/23 02:36:04;;;;;;;10.27;6.23;;;1.30;97.30;;;;;;5080291;28;20452;-88
2023/01/23 02:38:33;;;;;;;6.30;5.97;;;1.30;97.30;;;;;;5076562;28;20253;-87
2023/01/23 02:41:02;;;;;;;17.10;7.80;;;1.30;97.30;;;;;;5071804;28;20421;-86
2023/01/23 02:43:33;;;;;;;8.43;6.40;;;1.30;97.30;;;;;;5082777;28;20409;-93
2023/01/23 02:46:08;;;;;;;3.50;3.33;;;1.30;97.30;;;;;;5100759;28;20472;-91
2023/01/23 02:48:35;;;;;;;4.50;3.50;;;1.30;97.30;;;;;;5116819;28;20732;-86
2023/01/23 02:51:01;;;;;;;5.43;4.87;;;1.30;97.30;;;;;;5115166;28;20455;-86
2023/01/23 02:53:26;;;;;;;6.87;4.00;;;1.30;97.30;;;;;;5096747;28;20914;-88
2023/01/23 02:55:53;;;;;;;5.03;2.83;;;1.30;97.30;;;;;;5096700;28;20203;-86
2023/01/23 03:01:03;;;;;;;11.30;5.90;;;1.30;97.30;;;;;;5102055;28;20399;-89
2023/01/23 03:03:29;;;;;;;5.67;5.07;;;1.30;97.30;;;;;;5096686;28;20404;-89
2023/01/23 03:05:55;;;;;;;2.43;2.23;;;1.30;97.30;;;;;;5096787;28;20479;-89
2023/01/23 03:08:20;;;;;;;2.50;2.33;;;1.30;97.30;;;;;;5096542;28;20431;-88
2023/01/23 03:10:46;;;;;;;7.27;5.27;;;1.30;97.30;;;;;;5096383;28;20181;-88
2023/01/23 03:13:12;;;;;;;7.20;3.57;;;1.30;97.30;;;;;;5096476;28;20665;-88
2023/01/23 03:15:38;;;;;;;6.30;4.40;;;1.30;97.30;;;;;;5096046;28;20173;-88
2023/01/23 03:18:04;;;;;;;4.30;3.27;;;1.20;97.30;;;;;;5096038;28;20563;-88
2023/01/23 03:20:29;;;;;;;3.73;2.30;;;1.30;97.30;;;;;;5096318;28;20173;-88
2023/01/23 03:22:55;;;;;;;8.63;3.27;;;1.20;97.30;;;;;;5096153;28;20412;-88
2023/01/23 03:25:21;;;;;;;13.10;4.57;;;1.30;97.30;;;;;;5096213;28;20419;-88
2023/01/23 03:27:47;;;;;;;7.60;4.17;;;1.20;97.30;;;;;;5096108;28;20197;-89
2023/01/23 03:30:14;;;;;;;9.17;3.83;;;1.20;97.30;;;;;;5096120;28;20411;-88
2023/01/23 03:32:41;;;;;;;17.27;6.27;;;1.20;97.30;;;;;;5088850;28;20174;-88
2023/01/23 03:35:09;;;;;;;7.07;4.10;;;1.20;97.30;;;;;;5069953;28;20795;-88
2023/01/23 03:37:34;;;;;;;3.30;3.03;;;1.20;97.30;;;;;;5073058;28;20538;-88
2023/01/23 03:42:44;;;;;;;6.00;4.00;;;1.20;97.30;;;;;;5073265;28;20178;-88
2023/01/23 03:45:09;;;;;;;4.93;4.63;;;1.20;97.30;;;;;;5055640;28;20500;-88
2023/01/23 03:47:35;;;;;;;7.10;4.30;;;1.20;97.30;;;;;;5073074;28;20246;-88
2023/01/23 03:50:00;;;;;;;3.83;3.63;;;1.30;97.30;;;;;;5055822;28;20463;-88
2023/01/23 03:52:26;;;;;;;2.40;2.20;;;1.20;97.30;;;;;;5057679;28;20252;-88
2023/01/23 03:54:51;;;;;;;3.90;2.43;;;1.20;97.30;;;;;;5081819;28;20178;-89
2023/01/23 03:57:17;;;;;;;13.03;5.33;;;1.20;97.30;;;;;;5095393;28;20237;-88
2023/01/23 03:59:43;;;;;;;22.83;5.00;;;1.20;97.30;;;;;;5095453;28;20265;-88
2023/01/23 04:02:08;;;;;;;5.80;3.60;;;1.20;97.30;;;;;;5059196;28;20183;-89
2023/01/23 04:04:34;;;;;;;10.53;7.30;;;1.20;97.30;;;;;;5054519;28;20195;-88
2023/01/23 04:07:00;;;;;;;5.37;3.03;;;1.20;97.30;;;;;;5073082;28;20731;-89
2023/01/23 04:09:27;;;;;;;3.97;3.40;;;1.20;97.30;;;;;;5054677;28;20175;-89
2023/01/23 04:11:53;;;;;;;7.00;3.17;;;1.20;97.30;;;;;;5054897;28;20406;-89
2023/01/23 04:14:20;;;;;;;3.03;2.60;;;1.20;97.30;;;;;;5054854;28;20427;-89
2023/01/23 04:16:45;;;;;;;16.73;3.37;;;1.20;97.30;;;;;;5054746;28;20840;-89
2023/01/23 04:19:11;;;;;;;9.70;5.23;;;1.20;97.30;;;;;;5054913;28;20409;-89
2023/01/23 04:21:36;;;;;;;5.70;4.33;;;1.20;97.30;;;;;;5055019;28;20167;-89
2023/01/23 04:24:02;;;;;;;2.80;2.53;;;1.20;97.30;;;;;;5072691;28;20179;-89
2023/01/23 04:26:27;;;;;;;8.00;3.60;;;1.20;97.30;;;;;;5054793;28;20175;-88
2023/01/23 04:28:53;;;;;;;21.70;6.53;;;1.20;97.30;;;;;;5055112;28;20179;-89
2023/01/23 04:31:18;;;;;;;5.53;2.70;;;1.20;97.30;;;;;;5055174;28;20205;-89
2023/01/23 04:33:43;;;;;;;3.33;3.13;;;1.20;97.30;;;;;;5054643;28;20726;-89
2023/01/23 04:36:10;;;;;;;3.70;3.50;;;1.30;97.30;;;;;;5072328;28;20246;-88
2023/01/23 04:38:35;;;;;;;5.97;4.27;;;1.30;97.30;;;;;;5074856;28;20205;-89
2023/01/23 04:41:01;;;;;;;7.70;4.67;;;1.30;97.30;;;;;;5074471;28;20412;-89
2023/01/23 04:43:27;;;;;;;6.80;4.37;;;1.30;97.30;;;;;;5074897;28;20174;-89
2023/01/23 04:45:54;;;;;;;11.40;5.90;;;1.30;97.30;;;;;;5074743;28;20417;-89
2023/01/23 04:48:19;;;;;;;7.53;7.13;;;1.30;97.30;;;;;;5092449;28;20199;-89
2023/01/23 04:50:45;;;;;;;9.70;4.27;;;1.30;97.30;;;;;;5092645;28;20408;-89
2023/01/23 04:53:10;;;;;;;5.40;5.10;;;1.30;97.30;;;;;;5073850;28;20273;-89
2023/01/23 04:55:36;;;;;;;3.27;3.10;;;1.30;97.30;;;;;;5074217;28;20229;-89
2023/01/23 04:58:02;;;;;;;6.33;4.33;;;1.30;97.30;;;;;;5074047;28;20230;-89
2023/01/23 05:00:28;;;;;;;3.53;3.00;;;1.30;97.30;;;;;;5070961;28;20175;-89
2023/01/23 05:02:54;;;;;;;7.97;5.03;;;1.30;97.30;;;;;;5099730;28;20404;-89
2023/01/23 05:05:20;;;;;;;4.73;4.43;;;1.30;97.30;;;;;;5092041;28;20847;-89
2023/01/23 05:07:46;;;;;;;22.20;8.50;;;1.30;97.30;;;;;;5054770;28;20496;-88
2023/01/23 05:10:13;;;;;;;4.67;3.37;;;1.30;97.30;;;;;;5067225;28;20424;-89
2023/01/23 05:12:39;;;;;;;3.63;3.43;;;1.30;97.30;;;;;;5092436;28;20428;-89
2023/01/23 05:15:06;;;;;;;33.13;5.37;;;1.30;97.30;;;;;;5074623;28;20792;-88
2023/01/23 05:17:31;;;;;;;10.30;4.60;;;1.30;97.30;;;;;;5091355;28;20551;-88
2023/01/23 05:19:57;;;;;;;4.63;3.13;;;1.30;97.30;;;;;;5073664;28;20524;-89
2023/01/23 05:22:22;;;;;;;6.20;4.10;;;1.30;97.30;;;;;;5074140;28;20182;-89
2023/01/23 05:24:48;;;;;;;17.50;5.53;;;1.30;97.30;;;;;;5074059;28;20175;-88
2023/01/23 05:27:13;;;;;;;5.50;5.03;;;1.30;97.30;;;;;;5074927;28;20194;-88
2023/01/23 05:29:39;;;;;;;3.77;2.03;;;1.30;97.30;;;;;;5074139;28;20370;-88
2023/01/23 05:32:05;;;;;;;2.80;2.23;;;1.30;97.30;;;;;;5074347;28;20174;-89
2023/01/23 05:34:30;;;;;;;3.33;3.13;;;1.30;97.30;;;;;;5070247;28;20183;-89
2023/01/23 05:36:56;;;;;;;13.23;5.30;;;1.30;97.30;;;;;;5053680;28;20211;-89
2023/01/23 05:39:21;;;;;;;7.83;5.50;;;1.30;97.30;;;;;;5053819;28;20230;-89
2023/01/23 05:41:47;;;;;;;8.60;4.73;;;1.30;97.30;;;;;;5064430;28;20177;-89
2023/01/23 05:44:13;;;;;;;12.27;7.10;;;1.30;97.30;;;;;;5073946;28;20171;-89
2023/01/23 05:46:38;;;;;;;4.67;4.37;;;1.30;97.30;;;;;;5073475;28;20178;-89
2023/01/23 05:49:04;;;;;;;10.20;5.27;;;1.30;97.30;;;;;;5073901;28;20429;-89
2023/01/23 05:51:32;;;;;;;20.33;3.57;;;1.30;97.30;;;;;;5074040;28;20197;-89
2023/01/23 05:54:08;;;;;;;9.63;6.33;;;1.30;97.30;;;;;;5073616;28;20183;-89
2023/01/23 05:56:34;;;;;;;7.13;6.73;;;1.30;97.30;;;;;;5073919;28;20488;-89
2023/01/23 05:58:59;;;;;;;11.00;5.90;;;1.20;97.30;;;;;;5074307;28;20479;-89
2023/01/23 06:01:25;;;;;;;11.03;4.60;;;1.30;97.30;;;;;;5073667;28;20174;-89
2023/01/23 06:03:50;;;;;;;11.10;6.50;;;1.30;97.30;;;;;;5073665;28;20183;-89
2023/01/23 06:06:16;;;;;;;4.17;3.93;;;1.30;97.30;;;;;;5077027;28;20588;-89
2023/01/23 06:08:41;;;;;;;12.43;5.57;;;1.30;97.30;;;;;;5076961;28;20590;-89
2023/01/23 06:11:07;;;;;;;3.13;2.93;;;1.30;97.30;;;;;;5077934;28;20700;-89
2023/01/23 06:13:32;;;;;;;7.20;4.77;;;1.30;97.30;;;;;;5077612;28;20174;-89
2023/01/23 06:15:58;;;;;;;3.43;3.23;;;1.30;97.30;;;;;;5077805;28;20178;-89
2023/01/23 06:18:23;;;;;;;4.07;3.83;;;1.30;97.30;;;;;;5078105;28;20199;-89
2023/01/23 06:20:49;;;;;;;12.23;4.40;;;1.30;97.30;;;;;;5077635;28;20171;-89
2023/01/23 06:23:15;;;;;;;10.50;7.63;;;1.30;97.30;;;;;;5077970;28;20170;-89
2023/01/23 06:25:41;;;;;;;4.50;4.20;;;1.30;97.30;;;;;;5078595;28;20174;-89
2023/01/23 06:28:06;;;;;;;7.60;4.93;;;1.30;97.30;;;;;;5077229;28;20194;-88
2023/01/23 06:30:32;;;;;;;5.33;3.77;;;1.30;97.30;;;;;;5057030;28;20242;-89
2023/01/23 06:32:57;;;;;;;8.63;6.03;;;1.30;97.30;;;;;;5057417;28;20236;-89
2023/01/23 06:35:23;;;;;;;7.47;4.00;;;1.30;97.30;;;;;;5056707;28;20286;-89
2023/01/23 06:37:48;;;;;;;3.63;3.47;;;1.30;97.30;;;;;;5056100;28;20202;-89
2023/01/23 06:40:14;;;;;;;5.70;3.00;;;1.30;97.30;;;;;;5073354;28;20171;-89
2023/01/23 06:42:40;;;;;;;8.37;5.30;;;1.30;97.30;;;;;;5072046;28;20232;-88
2023/01/23 06:45:08;;;;;;;8.20;4.50;;;1.30;97.30;;;;;;5071483;28;20459;-89
2023/01/23 06:47:33;;;;;;;12.23;6.10;;;1.30;97.30;;;;;;5072217;28;21022;-89
2023/01/23 06:50:00;;;;;;;5.37;5.07;;;1.30;97.30;;;;;;5055319;28;20517;-89
2023/01/23 06:52:26;;;;;;;11.40;5.77;;;1.30;97.30;;;;;;5072596;28;20244;-89
2023/01/23 06:54:51;;;;;;;13.73;6.90;;;1.30;97.30;;;;;;5055832;28;20927;-88
2023/01/23 06:57:17;;;;;;;4.73;4.43;;;1.30;97.30;;;;;;5072281;28;20229;-89
2023/01/23 06:59:42;;;;;;;11.23;7.47;;;1.30;97.30;;;;;;5073197;28;20669;-88
2023/01/23 07:02:09;;;;;;;12.67;3.00;;;1.30;97.30;;;;;;5073509;28;20171;-89
2023/01/23 07:04:35;;;;;;;10.20;5.63;;;1.30;97.30;;;;;;5073610;28;20179;-89
2023/01/23 07:07:00;;;;;;;12.17;3.10;;;1.30;97.30;;;;;;5072983;28;20444;-89
2023/01/23 07:09:26;;;;;;;8.93;5.10;;;1.30;97.30;;;;;;5075106;28;20575;-89
2023/01/23 07:11:51;;;;;;;5.70;5.20;;;1.30;97.30;;;;;;5073043;28;20171;-89
2023/01/23 07:14:17;;;;;;;10.10;3.93;;;1.30;97.30;;;;;;5073341;28;20207;-89
2023/01/23 07:16:42;;;;;;;5.40;4.70;;;1.30;97.30;;;;;;5072262;28;20306;-89
2023/01/23 07:19:08;;;;;;;7.40;3.23;;;1.30;97.30;;;;;;5074468;28;20167;-89
2023/01/23 07:21:33;;;;;;;4.70;4.40;;;1.30;97.30;;;;;;5072920;28;20254;-89
2023/01/23 07:23:59;;;;;;;6.23;5.93;;;1.30;97.30;;;;;;5073572;28;20884;-89
2023/01/23 07:26:25;;;;;;;8.07;4.23;;;1.30;97.30;;;;;;5073039;28;20179;-89
2023/01/23 07:28:50;;;;;;;4.03;3.83;;;1.30;97.30;;;;;;5072808;28;20256;-89
2023/01/23 07:31:16;;;;;;;3.07;2.87;;;1.30;97.30;;;;;;5073095;28;20264;-89
2023/01/23 07:33:41;;;;;;;15.13;5.43;;;1.30;97.30;;;;;;5072962;28;20727;-89
2023/01/23 07:36:07;;;;;;;6.47;4.97;;;1.30;97.30;;;;;;5075602;28;20198;-89
2023/01/23 07:38:33;;;;;;;6.13;2.83;;;1.40;97.30;;;;;;5076875;28;20195;-89
2023/01/23 07:40:59;;;;;;;6.90;2.20;;;1.30;97.30;;;;;;5076064;28;20412;-89
2023/01/23 07:43:26;;;;;;;5.40;5.03;;;1.40;97.30;;;;;;5076240;28;20408;-89
2023/01/23 07:45:51;;;;;;;6.27;5.93;;;1.40;97.30;;;;;;5076056;28;20787;-89
2023/01/23 07:48:17;;;;;;;5.20;4.33;;;1.40;97.30;;;;;;5076922;28;20523;-89
2023/01/23 07:50:42;;;;;;;14.17;5.97;;;1.40;97.30;;;;;;5094257;28;20232;-89
2023/01/23 07:53:08;;;;;;;2.30;2.10;;;1.40;97.30;;;;;;5076977;28;20175;-89
2023/01/23 07:55:36;;;;;;;13.37;5.37;;;1.50;97.30;;;;;;5056920;28;20175;-89
2023/01/23 07:58:02;;;;;;;8.20;4.80;;;1.40;97.30;;;;;;5055570;28;20313;-89
2023/01/23 08:00:28;;;;;;;8.87;4.97;;;1.40;97.30;;;;;;5056341;28;20421;-90
2023/01/23 08:02:54;;;;;;;6.20;3.70;;;1.50;97.30;;;;;;5056322;28;20652;-89
2023/01/23 08:05:19;;;;;;;7.53;6.10;;;1.50;97.30;;;;;;5056472;28;20413;-89
2023/01/23 08:07:45;;;;;;;5.37;3.17;;;1.50;97.30;;;;;;5055788;28;20195;-89
2023/01/23 08:10:10;;;;;;;4.40;4.10;;;1.50;97.30;;;;;;5055283;28;20252;-89
2023/01/23 08:12:36;;;;;;;9.60;4.37;;;1.50;97.30;;;;;;5055262;28;20202;-89
2023/01/23 08:15:01;;;;;;;11.83;5.20;;;1.50;97.30;;;;;;5055473;28;20262;-89
2023/01/23 08:17:27;;;;;;;15.27;6.23;;;1.50;97.30;;;;;;5055701;28;20548;-89
2023/01/23 08:19:52;;;;;;;15.33;6.80;;;1.50;97.30;;;;;;5055467;28;20194;-89
2023/01/23 08:22:18;;;;;;;9.07;7.00;;;1.50;97.30;;;;;;5055765;28;20266;-89
2023/01/23 08:24:43;;;;;;;4.57;3.97;;;1.50;97.30;;;;;;5056015;28;20198;-89
2023/01/23 08:27:09;;;;;;;7.33;4.93;;;1.50;97.30;;;;;;5057260;28;20210;-89
2023/01/23 08:29:34;;;;;;;6.93;5.10;;;1.50;97.30;;;;;;5071425;28;20171;-89
2023/01/23 08:32:00;;;;;;;9.10;6.60;;;1.50;97.30;;;;;;5068915;28;20168;-89
2023/01/23 08:34:26;;;;;;;10.30;5.83;;;1.50;97.30;;;;;;5055251;28;20235;-89
2023/01/23 08:36:51;;;;;;;3.13;2.93;;;1.50;97.30;;;;;;5054662;28;20556;-89
2023/01/23 08:39:18;;;;;;;15.70;5.90;;;1.50;97.30;;;;;;5055221;28;20633;-89
2023/01/23 08:41:44;;;;;;;10.00;6.30;;;1.50;97.30;;;;;;5054520;28;20175;-89
2023/01/23 08:44:10;;;;;;;7.57;6.13;;;1.50;97.30;;;;;;5054894;28;20472;-89
2023/01/23 08:46:35;;;;;;;5.13;3.13;;;1.50;97.30;;;;;;5072815;28;20175;-89
2023/01/23 08:49:02;;;;;;;9.03;5.80;;;1.50;97.30;;;;;;5054878;28;20278;-89
2023/01/23 08:51:28;;;;;;;12.30;4.50;;;1.50;97.30;;;;;;5054654;28;20199;-89
2023/01/23 08:53:53;;;;;;;5.63;5.23;;;1.60;97.30;;;;;;5055094;28;20794;-89
2023/01/23 08:56:21;;;;;;;9.00;5.00;;;1.50;97.30;;;;;;5054525;28;20203;-88
2023/01/23 08:58:47;;;;;;;19.83;3.80;;;1.50;97.30;;;;;;5110277;22;20229;-84
2023/01/23 09:01:15;;;;;;;10.67;4.63;;;1.50;97.30;;;;;;5075035;28;20408;-85
2023/01/23 09:03:40;;;;;;;3.83;3.57;;;1.60;97.30;;;;;;5074890;28;20452;-88
2023/01/23 09:06:06;;;;;;;6.20;5.20;;;1.60;97.30;;;;;;5074856;28;20412;-86
2023/01/23 09:08:31;;;;;;;9.60;6.37;;;1.50;97.30;;;;;;5070796;28;20222;-86
2023/01/23 09:11:02;;;;;;;6.57;5.23;;;1.60;97.30;;;;;;5071213;28;20320;-87
2023/01/23 09:13:27;;;;;;;6.43;4.43;;;1.50;97.30;;;;;;5054511;28;20224;-87
2023/01/23 09:15:53;;;;;;;6.03;5.77;;;1.60;97.30;;;;;;5054427;28;20417;-86
2023/01/23 09:18:18;;;;;;;5.23;4.93;;;1.60;97.30;;;;;;5054164;28;20329;-85
2023/01/23 09:21:00;;;;;;;10.20;6.23;;;1.60;97.30;;;;;;5054720;28;20175;-86
2023/01/23 09:23:28;;;;;;;17.03;6.03;;;1.60;97.30;;;;;;5054648;28;20672;-86
2023/01/23 09:26:15;;;;;;;12.90;5.17;;;1.60;97.30;;;;;;5054567;28;20424;-85
2023/01/23 09:28:49;;;;;;;17.53;4.33;;;1.60;97.30;;;;;;5071226;28;20453;-85
2023/01/23 09:31:20;;;;;;;28.13;6.67;;;1.60;97.30;;;;;;5054681;28;20441;-85
2023/01/23 09:33:48;;;;;;;7.13;3.27;;;1.70;97.30;;;;;;5054563;28;20435;-85
2023/01/23 09:36:39;;;;;;;5.83;3.40;;;1.70;97.30;;;;;;5072806;28;20517;-86
2023/01/23 09:39:08;;;;;;;4.30;3.60;;;1.70;97.30;;;;;;5074593;28;20454;-86
2023/01/23 09:41:50;;;;;;;7.83;5.37;;;1.70;97.30;;;;;;5074709;28;20923;-85
2023/01/23 09:44:50;;;;;;;6.93;5.93;;;1.70;97.30;;;;;;5074497;28;20934;-88
2023/01/23 09:47:32;;;;;;;9.87;6.47;;;1.70;97.30;;;;;;5074502;28;21000;-86
2023/01/23 09:50:05;;;;;;;10.87;4.77;;;1.70;97.30;;;;;;5075289;28;20595;-88
2023/01/23 09:52:38;;;;;;;12.13;6.63;;;1.70;97.30;;;;;;5074597;28;20427;-85
2023/01/23 09:55:34;;;;;;;10.00;6.47;;;1.70;97.30;;;;;;5074610;28;20416;-86
2023/01/23 09:58:02;;;;;;;20.27;8.03;;;1.70;97.30;;;;;;5086455;28;20464;-89
2023/01/23 10:00:32;;;;;;;11.80;4.57;;;1.80;97.30;;;;;;5093953;28;20409;-86
2023/01/23 10:03:09;;;;;;;22.57;7.00;;;1.80;97.30;;;;;;5092751;28;20424;-86
2023/01/23 10:05:59;;;;;;;4.20;3.30;;;1.80;97.30;;;;;;5074538;28;20408;-87
2023/01/23 10:08:44;;;;;;;10.20;5.80;;;1.90;97.30;;;;;;5074377;28;21033;-86
2023/01/23 10:11:48;;;;;;;10.43;5.00;;;2.00;97.30;;;;;;5074649;28;20456;-86
2023/01/23 10:14:37;;;;;;;14.20;5.40;;;2.00;97.30;;;;;;5074171;28;20515;-88
2023/01/23 10:17:31;;;;;;;5.70;4.17;;;2.00;97.30;;;;;;5074301;28;20468;-85
2023/01/23 10:20:29;;;;;;;6.80;3.97;;;2.10;97.30;;;;;;5074499;28;20440;-85
2023/01/23 10:23:09;;;;;;;14.27;7.03;;;2.20;97.30;;;;;;5074537;28;20425;-85
2023/01/23 10:25:37;;;;;;;3.13;2.87;;;2.20;97.30;;;;;;5074576;28;20607;-85
2023/01/23 10:28:36;;;;;;;45.57;6.10;;;2.10;97.30;;;;;;5074973;28;20475;-86
2023/01/23 10:31:10;;;;;;;5.53;3.43;;;2.10;97.30;;;;;;5056177;28;20441;-86
2023/01/23 10:33:47;;;;;;;8.23;4.10;;;2.10;97.30;;;;;;5072319;28;20437;-86
2023/01/23 10:36:27;;;;;;;9.40;5.47;;;2.10;97.30;;;;;;5074228;28;20447;-86
2023/01/23 10:39:03;;;;;;;14.03;4.73;;;2.10;97.30;;;;;;5091945;28;20431;-85
2023/01/23 10:41:28;;;;;;;46.90;4.10;;;2.10;97.30;;;;;;5073928;28;20495;-85
2023/01/23 10:43:56;;;;;;;6.87;4.77;;;2.10;97.30;;;;;;5074593;28;20507;-86
2023/01/23 10:46:37;;;;;;;6.50;4.63;;;2.10;97.30;;;;;;5073940;28;20206;-86
2023/01/23 10:49:03;;;;;;;15.73;6.13;;;2.10;97.30;;;;;;5074184;28;20466;-85
2023/01/23 10:51:50;;;;;;;16.20;5.50;;;2.20;97.30;;;;;;5074020;28;20420;-85
2023/01/23 10:54:21;;;;;;;8.40;3.43;;;2.20;97.30;;;;;;5076818;28;20191;-86
2023/01/23 10:56:48;;;;;;;7.47;5.43;;;2.20;97.30;;;;;;5077312;28;20463;-85
2023/01/23 10:59:29;;;;;;;11.73;6.30;;;2.20;97.30;;;;;;5077372;28;20472;-86
2023/01/23 11:02:11;;;;;;;7.20;6.80;;;2.20;97.30;;;;;;5077180;28;20423;-87
2023/01/23 11:04:38;;;;;;;8.30;6.30;;;2.20;97.30;;;;;;5076986;28;20408;-85
2023/01/23 11:07:17;;;;;;;13.13;6.00;;;2.20;97.30;;;;;;5077595;28;20516;-86
2023/01/23 11:09:52;;;;;;;5.90;4.40;;;2.20;97.30;;;;;;5095582;28;20415;-85
2023/01/23 11:12:23;;;;;;;4.70;3.83;;;2.20;97.30;;;;;;5077292;28;20451;-86
2023/01/23 11:14:50;;;;;;;11.83;7.00;;;2.20;97.30;;;;;;5077325;28;20413;-88
2023/01/23 11:17:23;;;;;;;8.83;6.70;;;2.30;97.30;;;;;;5077512;28;20533;-85
2023/01/23 11:19:53;;;;;;;10.37;6.27;;;2.30;97.30;;;;;;5077255;28;20481;-85
2023/01/23 11:22:38;;;;;;;8.80;7.40;;;2.20;97.30;;;;;;5077599;28;20405;-86
2023/01/23 11:25:29;;;;;;;16.30;5.90;;;2.20;97.30;;;;;;5095198;28;20401;-85
2023/01/23 11:28:01;;;;;;;5.30;5.00;;;2.20;97.30;;;;;;5077171;28;20435;-87
2023/01/23 11:30:38;;;;;;;7.50;5.23;;;2.20;97.30;;;;;;5076505;28;20445;-85
2023/01/23 11:33:06;;;;;;;6.07;4.67;;;2.30;97.30;;;;;;5077108;28;20500;-86
2023/01/23 11:35:49;;;;;;;5.80;3.53;;;2.30;97.30;;;;;;5064592;28;20824;-85
2023/01/23 11:38:17;;;;;;;5.43;4.47;;;2.30;97.30;;;;;;5056201;28;20548;-86
2023/01/23 11:40:43;;;;;;;12.23;7.23;;;2.30;97.30;;;;;;5056674;28;20417;-86
2023/01/23 11:43:14;;;;;;;6.23;3.67;;;2.30;97.30;;;;;;5056651;28;20487;-86
2023/01/23 11:46:03;;;;;;;13.97;4.80;;;2.30;97.30;;;;;;5056725;28;20179;-87
2023/01/23 11:48:55;;;;;;;7.43;5.40;;;2.30;97.30;;;;;;5056437;28;21101;-85
2023/01/23 11:51:48;;;;;;;8.27;3.47;;;2.30;97.30;;;;;;5055535;28;20517;-85
2023/01/23 11:54:42;;;;;;;3.73;3.23;;;2.30;97.30;;;;;;5064388;28;20830;-86
2023/01/23 11:57:43;;;;;;;6.20;5.47;;;2.40;97.30;;;;;;5075379;28;20532;-87
2023/01/23 12:00:31;;;;;;;18.63;3.93;;;2.40;97.30;;;;;;5076451;28;20790;-85
2023/01/23 12:03:31;;;;;;;11.90;4.43;;;2.40;97.30;;;;;;5075860;28;20427;-85
2023/01/23 12:06:15;;;;;;;8.27;3.57;;;2.30;97.30;;;;;;5055217;28;20530;-87
2023/01/23 12:08:49;;;;;;;9.33;3.97;;;2.40;97.30;;;;;;5076903;28;20443;-86
2023/01/23 12:11:21;;;;;;;10.63;5.00;;;2.40;97.30;;;;;;5075955;28;20472;-86
2023/01/23 12:14:02;;;;;;;4.60;3.53;;;2.40;97.30;;;;;;5076682;28;20417;-85
2023/01/23 12:16:48;;;;;;;10.37;6.67;;;2.40;97.30;;;;;;5076585;28;20850;-88
2023/01/23 12:19:42;;;;;;;5.50;2.00;;;2.40;97.30;;;;;;5076122;28;20440;-86
2023/01/23 12:22:30;;;;;;;3.50;3.30;;;2.40;97.30;;;;;;5076395;28;20416;-85
2023/01/23 12:25:19;;;;;;;3.70;3.50;;;2.40;97.30;;;;;;5076407;28;20424;-85
2023/01/23 12:27:48;;;;;;;17.90;4.80;;;2.40;97.30;;;;;;5094556;28;20957;-85
2023/01/23 12:30:28;;;;;;;9.43;3.90;;;2.40;97.30;;;;;;5076485;28;20974;-85
2023/01/23 12:33:13;;;;;;;3.47;3.23;;;2.40;97.30;;;;;;5076626;28;20424;-85
2023/01/23 12:36:16;;;;;;;4.23;3.93;;;2.40;97.30;;;;;;5076391;28;20428;-86
2023/01/23 12:38:53;;;;;;;11.23;6.20;;;2.40;97.30;;;;;;5076632;28;20440;-85
2023/01/23 12:41:35;;;;;;;8.20;4.03;;;2.40;97.30;;;;;;5076851;28;20508;-85
2023/01/23 12:44:03;;;;;;;15.43;4.40;;;2.40;97.30;;;;;;5094068;28;20788;-85
2023/01/23 12:46:40;;;;;;;11.80;6.40;;;2.40;97.30;;;;;;5094106;28;20397;-85
2023/01/23 12:49:26;;;;;;;3.90;3.67;;;2.40;97.30;;;;;;5094808;28;20968;-85
2023/01/23 12:51:58;;;;;;;5.67;5.40;;;2.40;97.30;;;;;;5094236;28;20396;-85
2023/01/23 12:54:33;;;;;;;15.87;4.87;;;2.50;97.30;;;;;;5076185;28;20792;-86
2023/01/23 12:57:00;;;;;;;4.53;3.77;;;2.50;97.30;;;;;;5094795;28;20470;-85
2023/01/23 12:59:41;;;;;;;8.90;5.17;;;2.50;97.30;;;;;;5076819;28;20840;-88
2023/01/23 13:02:51;;;;;;;5.83;3.90;;;2.50;97.30;;;;;;5077445;28;20418;-86
2023/01/23 13:05:29;;;;;;;6.47;4.60;;;2.50;97.30;;;;;;5076927;28;20420;-89
2023/01/23 13:08:00;;;;;;;8.80;4.90;;;2.50;97.30;;;;;;5094346;28;20806;-85
2023/01/23 13:11:39;;;;;;;10.90;5.60;;;2.50;97.30;;;;;;5068008;28;20440;-85
2023/01/23 13:13:16;;;;;;;3.73;3.53;;;2.50;97.30;;;;;;5073793;28;20442;-85
2023/01/23 13:15:42;;;;;;;7.37;5.70;;;2.50;97.30;;;;;;5055689;28;20417;-85
2023/01/23 13:27:43;;;;;;;5.40;5.13;;;2.60;97.30;;;;;;5061935;28;20445;-85